Terminal Aerodrome Forecast
Issued by NWS Twin Cities, MN

Home | Current Version | Previous Version | Text Only | Print | Product List | Glossary On
Versions: 1 2 3 4 5 6 7 8 9 10 11 12 13 14 15 16
000
FTUS43 KMPX 290000 CCA
TAFSTC
TAF COR
KSTC 290000Z 2900/2924 13006KT P6SM -SHRA OVC010
     FM290130 11005KT P6SM -SHRA OVC007
     FM290600 12005KT 3SM -DZ BR OVC003
     FM291600 22005KT P6SM BKN007 OVC025
     FM291900 22006KT P6SM SCT025 OVC120=

USA.gov is the U.S. government's official web portal to all federal, state and local government web resources and services.